createdAt,value
2019-02-20T00:01:23.422Z,100965.02
2019-02-20T00:03:50.286Z,100963.83
2019-02-20T00:06:17.128Z,100968.76
2019-02-20T00:08:43.978Z,100970.83
2019-02-20T00:11:10.817Z,100970.70
2019-02-20T00:13:37.680Z,100969.09
2019-02-20T00:16:04.520Z,100967.80
2019-02-20T00:18:31.375Z,100967.14
2019-02-20T00:20:58.213Z,100963.66
2019-02-20T00:23:25.063Z,100968.75
2019-02-20T00:25:51.899Z,100967.02
2019-02-20T00:28:18.766Z,100976.23
2019-02-20T00:30:45.605Z,100974.27
2019-02-20T00:33:12.454Z,100970.84
2019-02-20T00:35:39.277Z,100970.63
2019-02-20T00:38:06.130Z,100977.28
2019-02-20T00:40:32.977Z,100982.05
2019-02-20T00:42:59.830Z,100979.17
2019-02-20T00:45:32.469Z,100985.78
2019-02-20T00:48:05.086Z,100989.97
2019-02-20T00:50:32.030Z,100990.04
2019-02-20T00:53:04.473Z,100999.55
2019-02-20T00:55:31.310Z,100995.05
2019-02-20T00:57:58.171Z,100999.14
2019-02-20T01:00:25.011Z,100989.28
2019-02-20T01:02:51.854Z,100992.87
2019-02-20T01:05:18.690Z,100987.62
2019-02-20T01:07:45.552Z,100991.22
2019-02-20T01:10:12.390Z,100988.58
2019-02-20T01:12:39.226Z,100997.20
2019-02-20T01:15:06.685Z,100988.45
2019-02-20T01:17:33.444Z,100989.66
2019-02-20T01:20:00.445Z,100991.18
2019-02-20T01:22:27.150Z,100995.12
2019-02-20T01:24:54.010Z,100987.11
2019-02-20T01:27:20.834Z,100989.97
2019-02-20T01:29:47.698Z,100990.06
2019-02-20T01:32:14.531Z,100987.64
2019-02-20T01:34:41.397Z,100989.83
2019-02-20T01:37:08.225Z,100995.50
2019-02-20T01:39:35.082Z,100992.94
2019-02-20T01:42:01.954Z,100989.67
2019-02-20T01:44:28.802Z,100986.89
2019-02-20T01:46:55.643Z,100987.38
2019-02-20T01:49:22.581Z,100994.24
2019-02-20T01:51:49.423Z,100988.58
2019-02-20T01:54:16.277Z,100989.41
2019-02-20T01:56:43.093Z,100977.19
2019-02-20T01:59:09.942Z,100975.63
2019-02-20T02:01:36.783Z,100972.39
2019-02-20T02:04:03.626Z,100975.16
2019-02-20T02:06:30.452Z,100965.61
2019-02-20T02:08:57.295Z,100970.66
2019-02-20T02:11:24.129Z,100967.17
2019-02-20T02:13:50.978Z,100968.45
2019-02-20T02:16:17.805Z,100960.00
2019-02-20T02:18:44.658Z,100963.38
2019-02-20T02:21:11.526Z,100968.52
2019-02-20T02:23:38.386Z,100968.09
2019-02-20T02:26:10.787Z,100968.22
2019-02-20T02:28:32.070Z,100968.88
2019-02-20T02:30:58.906Z,100969.80
2019-02-20T02:33:25.763Z,100978.41
2019-02-20T02:35:52.623Z,100962.66
2019-02-20T02:38:19.459Z,100972.84
2019-02-20T02:40:46.314Z,100970.27
2019-02-20T02:43:13.143Z,100970.42
2019-02-20T02:45:40.005Z,100971.63
2019-02-20T02:48:06.835Z,100967.55
2019-02-20T02:50:33.749Z,100965.66
2019-02-20T02:53:00.600Z,100965.88
2019-02-20T02:55:27.446Z,100963.78
2019-02-20T02:57:54.275Z,100964.66
2019-02-20T03:00:21.152Z,100961.12
2019-02-20T03:02:47.969Z,100961.42
2019-02-20T03:05:14.884Z,100960.55
2019-02-20T03:07:41.717Z,100961.59
2019-02-20T03:10:08.577Z,100967.02
2019-02-20T03:12:35.418Z,100965.44
2019-02-20T03:15:02.284Z,100960.84
2019-02-20T03:17:29.106Z,100957.81
2019-02-20T03:19:55.947Z,100956.06
2019-02-20T03:22:22.809Z,100945.29
2019-02-20T03:24:49.660Z,100957.50
2019-02-20T03:27:16.505Z,100956.38
2019-02-20T03:29:43.356Z,100956.15
2019-02-20T03:32:10.183Z,100956.75
2019-02-20T03:34:37.039Z,100960.22
2019-02-20T03:37:04.075Z,100961.90
2019-02-20T03:39:30.911Z,100969.42
2019-02-20T03:41:57.759Z,100969.56
2019-02-20T03:44:24.612Z,100968.73
2019-02-20T03:46:51.489Z,100965.83
2019-02-20T03:49:18.282Z,100971.11
2019-02-20T03:51:45.121Z,100971.16
2019-02-20T03:54:11.966Z,100972.91
2019-02-20T03:56:38.790Z,100973.05
2019-02-20T03:59:05.626Z,100978.62
2019-02-20T04:01:32.487Z,100971.63
2019-02-20T04:03:59.316Z,100976.34
2019-02-20T04:06:26.156Z,100989.03
2019-02-20T04:08:52.986Z,100985.90
2019-02-20T04:11:19.830Z,100981.45
2019-02-20T04:13:46.680Z,100982.70
2019-02-20T04:16:13.520Z,100985.19
2019-02-20T04:18:40.383Z,100980.66
2019-02-20T04:21:07.246Z,100980.35
2019-02-20T04:23:34.210Z,100984.92
2019-02-20T04:26:01.034Z,100987.55
2019-02-20T04:28:27.892Z,100985.02
2019-02-20T04:30:54.715Z,100990.75
2019-02-20T04:33:21.575Z,100980.42
2019-02-20T04:35:48.389Z,100978.30
2019-02-20T04:38:15.238Z,100980.74
2019-02-20T04:40:42.077Z,100974.40
2019-02-20T04:43:08.916Z,100975.66
2019-02-20T04:45:35.833Z,100983.97
2019-02-20T04:48:02.715Z,100983.74
2019-02-20T04:50:29.563Z,100981.78
2019-02-20T04:52:56.390Z,100987.30
2019-02-20T04:55:23.235Z,100980.02
2019-02-20T04:58:10.202Z,100987.83
2019-02-20T05:00:37.032Z,100991.84
2019-02-20T05:03:03.881Z,100989.28
2019-02-20T05:05:30.714Z,100993.98
2019-02-20T05:07:57.567Z,100998.82
2019-02-20T05:10:24.401Z,100995.21
2019-02-20T05:12:51.243Z,101004.11
2019-02-20T05:15:18.103Z,101000.82
2019-02-20T05:17:44.995Z,101005.22
2019-02-20T05:20:11.845Z,101001.08
2019-02-20T05:22:39.810Z,101001.41
2019-02-20T05:25:06.710Z,101004.58
2019-02-20T05:27:33.482Z,101007.78
2019-02-20T05:30:00.475Z,101008.23
2019-02-20T05:32:27.179Z,101003.57
2019-02-20T05:34:54.028Z,101010.22
2019-02-20T05:37:20.859Z,101014.64
2019-02-20T05:39:47.715Z,101009.64
2019-02-20T05:42:14.546Z,101012.06
2019-02-20T05:44:41.398Z,101013.98
2019-02-20T05:47:08.222Z,101020.34
2019-02-20T05:49:35.113Z,101017.27
2019-02-20T05:52:01.997Z,101012.34
2019-02-20T05:54:34.675Z,101013.00
2019-02-20T05:56:55.691Z,101023.59
2019-02-20T05:59:22.534Z,101019.83
2019-02-20T06:01:49.375Z,101016.67
2019-02-20T06:04:16.398Z,101024.01
2019-02-20T06:06:43.226Z,101026.95
2019-02-20T06:09:10.078Z,101038.06
2019-02-20T06:11:36.907Z,101033.72
2019-02-20T06:14:03.766Z,101038.45
2019-02-20T06:16:30.594Z,101030.16
2019-02-20T06:18:57.446Z,101034.31
2019-02-20T06:21:24.278Z,101035.15
2019-02-20T06:23:51.131Z,101034.16
2019-02-20T06:26:17.961Z,101041.17
2019-02-20T06:28:44.836Z,101045.94
2019-02-20T06:31:11.675Z,101046.03
2019-02-20T06:34:37.873Z,101053.85
2019-02-20T06:37:04.705Z,101048.66
2019-02-20T06:39:31.564Z,101045.02
2019-02-20T06:41:58.453Z,101044.92
2019-02-20T06:44:25.254Z,101053.67
2019-02-20T06:46:52.085Z,101057.04
2019-02-20T06:49:18.963Z,101053.23
2019-02-20T06:51:45.826Z,101057.65
2019-02-20T06:54:12.687Z,101064.59
2019-02-20T06:56:39.527Z,101064.70
2019-02-20T06:59:06.375Z,101067.72
2019-02-20T07:01:33.218Z,101079.81
2019-02-20T07:04:00.077Z,101076.98
2019-02-20T07:06:50.052Z,101083.53
2019-02-20T07:09:46.208Z,101086.86
2019-02-20T07:12:39.553Z,101087.77
2019-02-20T07:15:24.606Z,101090.05
2019-02-20T07:18:04.672Z,101084.70
2019-02-20T07:21:02.487Z,101078.84
2019-02-20T07:23:53.851Z,101085.17
2019-02-20T07:26:31.423Z,101090.02
2019-02-20T07:29:13.464Z,101094.36
2019-02-20T07:31:40.462Z,101090.20
2019-02-20T07:34:07.511Z,101095.56
2019-02-20T07:36:34.347Z,101095.64
2019-02-20T07:39:01.311Z,101094.03
2019-02-20T07:41:28.146Z,101093.56
2019-02-20T07:43:55.075Z,101096.30
2019-02-20T07:46:21.918Z,101095.98
2019-02-20T07:48:48.778Z,101095.92
2019-02-20T07:51:15.633Z,101101.77
2019-02-20T07:53:42.486Z,101097.95
2019-02-20T07:56:09.326Z,101095.88
2019-02-20T07:58:36.177Z,101105.01
2019-02-20T08:01:03.027Z,101105.83
2019-02-20T08:03:29.916Z,101100.43
2019-02-20T08:05:56.726Z,101108.98
2019-02-20T08:08:23.570Z,101107.23
2019-02-20T08:10:50.437Z,101105.38
2019-02-20T08:13:17.314Z,101106.95
2019-02-20T08:15:44.162Z,101111.36
2019-02-20T08:18:10.994Z,101116.41
2019-02-20T08:20:37.866Z,101115.67
2019-02-20T08:23:04.714Z,101121.06
2019-02-20T08:25:31.597Z,101117.11
2019-02-20T08:27:58.441Z,101119.55
2019-02-20T08:30:25.307Z,101117.41
2019-02-20T08:32:52.151Z,101119.47
2019-02-20T08:35:19.000Z,101118.14
2019-02-20T08:37:45.838Z,101112.25
2019-02-20T08:40:14.762Z,101115.82
2019-02-20T08:42:41.595Z,101114.91
2019-02-20T08:45:08.806Z,101118.42
2019-02-20T08:47:35.666Z,101126.09
2019-02-20T08:50:02.581Z,101127.27
2019-02-20T08:52:29.430Z,101129.91
2019-02-20T08:54:56.330Z,101131.87
2019-02-20T08:57:23.146Z,101137.86
2019-02-20T08:59:51.735Z,101141.34
2019-02-20T09:02:16.871Z,101144.33
2019-02-20T09:04:43.755Z,101156.82
2019-02-20T09:07:10.615Z,101151.98
2019-02-20T09:09:37.490Z,101164.47
2019-02-20T09:12:04.343Z,101169.51
2019-02-20T09:14:31.209Z,101170.75
2019-02-20T09:16:58.071Z,101170.41
2019-02-20T09:19:24.937Z,101179.64
2019-02-20T09:21:51.785Z,101178.45
2019-02-20T09:24:18.664Z,101181.55
2019-02-20T09:26:45.518Z,101181.94
2019-02-20T09:29:12.371Z,101174.63
2019-02-20T09:31:39.239Z,101173.17
2019-02-20T09:34:06.075Z,101173.51
2019-02-20T09:36:32.941Z,101174.98
2019-02-20T09:39:25.891Z,101176.14
2019-02-20T09:41:52.747Z,101173.42
2019-02-20T09:44:19.590Z,101173.86
2019-02-20T09:46:46.475Z,101174.12
2019-02-20T09:49:13.332Z,101178.30
2019-02-20T09:51:40.234Z,101181.66
2019-02-20T09:54:07.082Z,101174.20
2019-02-20T09:56:34.162Z,101173.80
2019-02-20T09:59:01.007Z,101171.55
2019-02-20T10:01:27.874Z,101177.48
2019-02-20T10:03:54.735Z,101181.66
2019-02-20T10:06:21.605Z,101179.22
2019-02-20T10:08:48.454Z,101180.20
2019-02-20T10:11:15.315Z,101179.92
2019-02-20T10:13:42.209Z,101173.53
2019-02-20T10:16:09.029Z,101175.30
2019-02-20T10:18:35.861Z,101175.33
2019-02-20T10:21:02.711Z,101182.28
2019-02-20T10:23:29.610Z,101180.45
2019-02-20T10:26:00.989Z,101172.79
2019-02-20T10:28:23.309Z,101174.14
2019-02-20T10:30:50.230Z,101178.23
2019-02-20T10:33:17.054Z,101179.30
2019-02-20T10:35:43.934Z,101182.08
2019-02-20T10:38:10.771Z,101177.72
2019-02-20T10:40:37.634Z,101182.58
2019-02-20T10:43:05.221Z,101173.52
2019-02-20T10:45:32.063Z,101174.58
2019-02-20T10:47:58.895Z,101180.90
2019-02-20T10:50:25.777Z,101181.80
2019-02-20T10:52:52.618Z,101176.28
2019-02-20T10:55:19.474Z,101182.77
2019-02-20T10:57:46.310Z,101185.01
2019-02-20T11:00:23.521Z,101182.66
2019-02-20T11:02:42.917Z,101181.09
2019-02-20T11:05:09.780Z,101175.52
2019-02-20T11:07:36.605Z,101172.06
2019-02-20T11:10:03.707Z,101177.08
2019-02-20T11:12:30.531Z,101174.36
2019-02-20T11:14:57.367Z,101174.30
2019-02-20T11:17:24.226Z,101166.87
2019-02-20T11:19:51.064Z,101170.80
2019-02-20T11:22:17.918Z,101174.70
2019-02-20T11:24:44.758Z,101172.19
2019-02-20T11:27:11.611Z,101164.47
2019-02-20T11:29:38.438Z,101163.78
2019-02-20T11:32:05.954Z,101158.77
2019-02-20T11:34:32.793Z,101164.41
2019-02-20T11:36:59.760Z,101165.29
2019-02-20T11:39:26.564Z,101162.80
2019-02-20T11:41:53.431Z,101161.53
2019-02-20T11:44:21.232Z,101166.72
2019-02-20T11:46:47.134Z,101166.33
2019-02-20T11:49:15.459Z,101163.70
2019-02-20T11:51:42.333Z,101155.75
2019-02-20T11:54:09.175Z,101158.06
2019-02-20T11:56:36.057Z,101150.38
2019-02-20T11:59:02.896Z,101145.22
2019-02-20T12:01:29.753Z,101147.97
2019-02-20T12:03:56.582Z,101145.32
2019-02-20T12:06:23.443Z,101145.63
2019-02-20T12:08:50.272Z,101142.52
2019-02-20T12:11:17.119Z,101139.75
2019-02-20T12:13:43.950Z,101138.58
2019-02-20T12:16:10.822Z,101131.64
2019-02-20T12:18:37.772Z,101123.17
2019-02-20T12:21:04.654Z,101130.72
2019-02-20T12:23:36.676Z,101125.30
2019-02-20T12:26:01.418Z,101117.47
2019-02-20T12:28:27.048Z,101118.83
2019-02-20T12:30:53.961Z,101123.55
2019-02-20T12:33:20.807Z,101123.83
2019-02-20T12:35:47.935Z,101119.71
2019-02-20T12:38:14.775Z,101115.14
2019-02-20T12:40:41.627Z,101109.98
2019-02-20T12:43:08.450Z,101107.59
2019-02-20T12:45:35.374Z,101105.38
2019-02-20T12:48:02.262Z,101110.94
2019-02-20T12:50:29.493Z,101106.92
2019-02-20T12:52:56.337Z,101103.48
2019-02-20T12:55:23.170Z,101104.26
2019-02-20T12:57:50.030Z,101102.70
2019-02-20T13:00:16.894Z,101113.27
2019-02-20T13:02:43.742Z,101118.37
2019-02-20T13:05:10.687Z,101105.17
2019-02-20T13:07:37.577Z,101107.05
2019-02-20T13:10:04.446Z,101115.96
2019-02-20T13:12:31.284Z,101112.03
2019-02-20T13:14:58.157Z,101105.04
2019-02-20T13:17:25.326Z,101103.47
2019-02-20T13:19:52.181Z,101106.88
2019-02-20T13:22:19.038Z,101109.06
2019-02-20T13:24:45.874Z,101113.50
2019-02-20T13:27:12.745Z,101116.50
2019-02-20T13:29:39.742Z,101106.88
2019-02-20T13:32:06.630Z,101099.47
2019-02-20T13:34:33.495Z,101094.94
2019-02-20T13:37:00.548Z,101098.85
2019-02-20T13:39:27.351Z,101097.06
2019-02-20T13:41:54.218Z,101091.72
2019-02-20T13:44:21.087Z,101096.99
2019-02-20T13:46:47.927Z,101093.56
2019-02-20T13:49:15.771Z,101090.06
2019-02-20T13:51:42.644Z,101093.70
2019-02-20T13:54:09.474Z,101089.41
2019-02-20T13:56:36.340Z,101089.06
2019-02-20T13:59:03.210Z,101091.70
2019-02-20T14:01:30.075Z,101092.35
2019-02-20T14:03:56.933Z,101084.00
2019-02-20T14:06:23.803Z,101087.83
2019-02-20T14:08:50.654Z,101081.36
2019-02-20T14:11:17.502Z,101081.19
2019-02-20T14:13:44.352Z,101085.08
2019-02-20T14:16:11.216Z,101088.29
2019-02-20T14:18:38.055Z,101079.36
2019-02-20T14:21:04.917Z,101072.48
2019-02-20T14:23:31.752Z,101080.25
2019-02-20T14:25:58.640Z,101076.32
2019-02-20T14:28:25.482Z,101074.39
2019-02-20T14:30:52.334Z,101077.52
2019-02-20T14:33:19.180Z,101072.61
2019-02-20T14:35:46.078Z,101074.58
2019-02-20T14:38:12.934Z,101072.59
2019-02-20T14:40:39.782Z,101074.28
2019-02-20T14:43:07.246Z,101072.50
2019-02-20T14:45:34.207Z,101082.27
2019-02-20T14:48:01.143Z,101077.77
2019-02-20T14:50:27.974Z,101078.63
2019-02-20T14:52:54.858Z,101072.94
2019-02-20T14:55:21.839Z,101069.01
2019-02-20T14:57:48.686Z,101063.52
2019-02-20T15:00:15.523Z,101074.05
2019-02-20T15:02:42.396Z,101078.64
2019-02-20T15:05:09.250Z,101078.84
2019-02-20T15:07:36.118Z,101074.23
2019-02-20T15:10:03.001Z,101073.12
2019-02-20T15:12:29.870Z,101080.09
2019-02-20T15:14:56.702Z,101078.78
2019-02-20T15:17:24.994Z,101077.00
2019-02-20T15:19:53.609Z,101075.39
2019-02-20T15:22:20.510Z,101073.54
2019-02-20T15:24:47.354Z,101067.72
2019-02-20T15:27:14.238Z,101071.68
2019-02-20T15:29:41.070Z,101066.69
2019-02-20T15:32:07.986Z,101063.83
2019-02-20T15:34:34.823Z,101068.09
2019-02-20T15:37:01.711Z,101068.95
2019-02-20T15:39:28.540Z,101063.38
2019-02-20T15:41:55.390Z,101070.80
2019-02-20T15:44:22.222Z,101071.20
2019-02-20T15:46:49.080Z,101072.80
2019-02-20T15:49:16.422Z,101075.25
2019-02-20T15:51:43.272Z,101077.81
2019-02-20T15:54:10.098Z,101078.64
2019-02-20T15:56:37.102Z,101079.27
2019-02-20T15:59:03.930Z,101071.28
2019-02-20T16:01:30.766Z,101080.38
2019-02-20T16:03:57.663Z,101081.63
2019-02-20T16:06:24.455Z,101083.05
2019-02-20T16:08:51.310Z,101078.58
2019-02-20T16:11:18.171Z,101081.98
2019-02-20T16:13:45.026Z,101080.50
2019-02-20T16:16:11.859Z,101085.92
2019-02-20T16:18:38.706Z,101087.80
2019-02-20T16:21:05.550Z,101093.80
2019-02-20T16:23:32.420Z,101090.11
2019-02-20T16:25:59.250Z,101092.13
2019-02-20T16:28:33.563Z,101100.21
2019-02-20T16:30:53.058Z,101099.80
2019-02-20T16:33:19.915Z,101097.87
2019-02-20T16:35:48.344Z,101101.77
2019-02-20T16:38:13.602Z,101106.05
2019-02-20T16:40:40.438Z,101108.16
2019-02-20T16:43:07.298Z,101101.00
2019-02-20T16:45:34.130Z,101105.77
2019-02-20T16:48:00.983Z,101105.07
2019-02-20T16:50:27.819Z,101109.73
2019-02-20T16:52:54.674Z,101109.85
2019-02-20T16:55:22.727Z,101109.59
2019-02-20T16:57:56.220Z,101111.26
2019-02-20T17:00:15.535Z,101110.16
2019-02-20T17:02:42.502Z,101118.74
2019-02-20T17:05:13.481Z,101113.90
2019-02-20T17:07:36.639Z,101114.01
2019-02-20T17:10:03.819Z,101115.52
2019-02-20T17:12:30.681Z,101115.77
2019-02-20T17:14:57.527Z,101115.31
2019-02-20T17:17:24.409Z,101116.62
2019-02-20T17:19:51.261Z,101116.03
2019-02-20T17:22:18.098Z,101120.70
2019-02-20T17:24:44.946Z,101113.58
2019-02-20T17:27:11.787Z,101120.84
2019-02-20T17:29:38.642Z,101124.55
2019-02-20T17:32:05.474Z,101125.07
2019-02-20T17:34:32.331Z,101128.79
2019-02-20T17:36:59.185Z,101134.20
2019-02-20T17:39:26.127Z,101136.87
2019-02-20T17:41:52.966Z,101135.66
2019-02-20T17:44:19.841Z,101128.63
2019-02-20T17:46:46.674Z,101137.80
2019-02-20T17:49:13.518Z,101137.66
2019-02-20T17:51:40.366Z,101139.98
2019-02-20T17:54:07.268Z,101144.47
2019-02-20T17:56:34.086Z,101150.05
2019-02-20T17:59:00.959Z,101151.67
2019-02-20T18:01:27.789Z,101150.40
2019-02-20T18:03:54.707Z,101152.55
2019-02-20T18:06:21.535Z,101156.42
2019-02-20T18:08:48.398Z,101155.73
2019-02-20T18:11:15.264Z,101158.98
2019-02-20T18:13:42.117Z,101161.31
2019-02-20T18:16:08.962Z,101153.03
2019-02-20T18:18:35.834Z,101159.66
2019-02-20T18:21:02.666Z,101166.16
2019-02-20T18:23:29.507Z,101171.12
2019-02-20T18:25:56.357Z,101178.83
2019-02-20T18:28:24.722Z,101180.74
2019-02-20T18:30:50.040Z,101181.77
2019-02-20T18:33:16.870Z,101189.04
2019-02-20T18:35:43.737Z,101187.97
2019-02-20T18:38:10.632Z,101189.25
2019-02-20T18:40:37.524Z,101186.27
2019-02-20T18:43:04.383Z,101186.55
2019-02-20T18:45:31.222Z,101186.83
2019-02-20T18:47:58.063Z,101198.48
2019-02-20T18:50:24.918Z,101200.28
2019-02-20T18:52:51.746Z,101197.65
2019-02-20T18:55:18.618Z,101201.17
2019-02-20T18:57:45.459Z,101202.97
2019-02-20T19:00:13.385Z,101205.88
2019-02-20T19:02:40.216Z,101209.00
2019-02-20T19:05:07.164Z,101206.63
2019-02-20T19:07:34.085Z,101210.48
2019-02-20T19:10:00.951Z,101212.84
2019-02-20T19:12:46.567Z,101214.14
2019-02-20T19:15:24.697Z,101214.75
2019-02-20T19:18:03.831Z,101223.87
2019-02-20T19:20:41.565Z,101225.24
2019-02-20T19:23:35.969Z,101222.29
2019-02-20T19:26:15.126Z,101226.07
2019-02-20T19:29:22.337Z,101225.27
2019-02-20T19:32:05.995Z,101223.05
2019-02-20T19:34:51.743Z,101228.23
2019-02-20T19:37:44.859Z,101228.11
2019-02-20T19:40:38.131Z,101230.31
2019-02-20T19:43:32.881Z,101225.69
2019-02-20T19:46:21.036Z,101226.41
2019-02-20T19:48:58.965Z,101230.34
2019-02-20T19:51:38.125Z,101238.77
2019-02-20T19:54:42.088Z,101245.48
2019-02-20T19:57:35.302Z,101242.91
2019-02-20T20:00:16.557Z,101240.09
2019-02-20T20:02:55.093Z,101242.30
2019-02-20T20:06:03.912Z,101244.45
2019-02-20T20:08:46.924Z,101249.02
2019-02-20T20:11:25.557Z,101255.58
2019-02-20T20:14:10.700Z,101250.55
2019-02-20T20:17:20.270Z,101254.99
2019-02-20T20:19:57.801Z,101253.25
2019-02-20T20:22:39.288Z,101257.14
2019-02-20T20:25:14.998Z,101256.92
2019-02-20T20:27:59.953Z,101255.98
2019-02-20T20:30:44.148Z,101259.92
2019-02-20T20:33:28.709Z,101259.73
2019-02-20T20:36:23.040Z,101260.50
2019-02-20T20:39:08.221Z,101267.19
2019-02-20T20:41:51.042Z,101257.34
2019-02-20T20:44:46.634Z,101262.28
2019-02-20T20:47:42.495Z,101260.58
2019-02-20T20:50:41.066Z,101265.85
2019-02-20T20:53:21.779Z,101264.66
2019-02-20T20:56:15.614Z,101260.45
2019-02-20T20:58:52.269Z,101264.34
2019-02-20T21:01:46.663Z,101266.30
2019-02-20T21:04:44.808Z,101257.50
2019-02-20T21:07:24.903Z,101262.78
2019-02-20T21:10:06.559Z,101263.24
2019-02-20T21:12:44.942Z,101262.58
2019-02-20T21:15:32.605Z,101262.70
2019-02-20T21:18:36.715Z,101267.05
2019-02-20T21:21:33.280Z,101271.22
2019-02-20T21:24:29.715Z,101270.85
2019-02-20T21:27:06.666Z,101267.31
2019-02-20T21:30:03.131Z,101265.22
2019-02-20T21:32:40.493Z,101268.47
2019-02-20T21:35:20.759Z,101260.76
2019-02-20T21:38:17.997Z,101264.95
2019-02-20T21:40:57.939Z,101261.11
2019-02-20T21:43:45.581Z,101261.39
2019-02-20T21:46:24.989Z,101266.09
2019-02-20T21:49:07.977Z,101270.14
2019-02-20T21:52:02.322Z,101271.80
2019-02-20T21:54:49.766Z,101274.11
2019-02-20T21:57:22.482Z,101274.28
2019-02-20T22:00:16.530Z,101272.36
2019-02-20T22:02:57.133Z,101275.97
2019-02-20T22:06:04.490Z,101277.98
2019-02-20T22:08:51.330Z,101274.60
2019-02-20T22:11:40.890Z,101283.33
2019-02-20T22:14:36.970Z,101283.58
2019-02-20T22:17:31.254Z,101282.58
2019-02-20T22:20:32.458Z,101279.58
2019-02-20T22:23:14.494Z,101279.34
2019-02-20T22:25:57.906Z,101280.90
2019-02-20T22:28:38.265Z,101282.73
2019-02-20T22:31:31.292Z,101280.23
2019-02-20T22:34:05.697Z,101282.23
2019-02-20T22:36:58.014Z,101276.88
2019-02-20T22:39:49.017Z,101280.84
2019-02-20T22:42:43.689Z,101277.67
2019-02-20T22:45:33.556Z,101275.82
2019-02-20T22:48:17.591Z,101278.67
2019-02-20T22:51:11.339Z,101280.66
2019-02-20T22:53:58.073Z,101281.02
2019-02-20T22:56:54.159Z,101284.25
2019-02-20T22:59:48.499Z,101289.73
2019-02-20T23:02:48.309Z,101294.53
2019-02-20T23:05:43.783Z,101294.52
2019-02-20T23:08:28.775Z,101293.33
2019-02-20T23:11:26.010Z,101304.11
2019-02-20T23:14:09.947Z,101300.13
2019-02-20T23:16:36.871Z,101311.84
2019-02-20T23:19:03.738Z,101310.12
2019-02-20T23:21:30.582Z,101304.76
2019-02-20T23:23:57.674Z,101307.00
2019-02-20T23:26:24.516Z,101311.03
2019-02-20T23:28:51.366Z,101309.84
2019-02-20T23:31:18.209Z,101309.23
2019-02-20T23:33:45.078Z,101319.62
2019-02-20T23:36:11.918Z,101314.19
2019-02-20T23:38:38.782Z,101318.58
2019-02-20T23:41:05.633Z,101320.56
2019-02-20T23:43:32.496Z,101323.43
2019-02-20T23:45:59.461Z,101318.74
2019-02-20T23:48:26.319Z,101326.04
2019-02-20T23:50:53.158Z,101323.33
2019-02-20T23:53:20.056Z,101327.31
2019-02-20T23:55:46.928Z,101325.81
2019-02-20T23:58:13.786Z,101333.41
